Time;durP1;ratioP1;P1;durP2;ratioP2;P2;SDS_P1;SDS_P2;PMS_P1;PMS_P2;Temp;Humidity;BMP_temperature;BMP_pressure;BME280_temperature;BME280_humidity;BME280_pressure;Samples;Min_cycle;Max_cycle;Signal;HPM_P1;HPM_P2
2023/04/02 00:01:46;;;;;;;22.13;15.23;;;9.30;99.90;;;;;;5119667;27;20024;-61
2023/04/02 00:04:28;;;;;;;19.10;14.68;;;9.30;99.90;;;;;;5119532;28;20296;-60
2023/04/02 00:07:32;;;;;;;18.40;14.40;;;9.20;99.90;;;;;;5119576;28;20023;-60
2023/04/02 00:09:58;;;;;;;18.75;14.00;;;9.30;99.90;;;;;;5118332;28;20118;-61
2023/04/02 00:12:24;;;;;;;18.73;14.00;;;9.20;99.90;;;;;;5119550;28;20032;-61
2023/04/02 00:14:53;;;;;;;19.67;14.52;;;9.30;99.90;;;;;;5118685;28;20042;-61
2023/04/02 00:17:23;;;;;;;20.77;13.90;;;9.20;99.90;;;;;;5119495;28;20063;-60
2023/04/02 00:20:05;;;;;;;19.83;14.00;;;9.20;99.90;;;;;;5119113;28;20296;-60
2023/04/02 00:22:32;;;;;;;18.92;13.60;;;9.30;99.90;;;;;;5118615;28;20122;-61
2023/04/02 00:25:02;;;;;;;15.73;12.82;;;9.20;99.90;;;;;;5118352;28;20417;-60
2023/04/02 00:27:30;;;;;;;16.83;13.52;;;9.10;99.90;;;;;;5118455;28;20031;-61
2023/04/02 00:29:57;;;;;;;17.17;12.98;;;9.10;99.90;;;;;;5119219;28;20287;-60
2023/04/02 00:32:30;;;;;;;16.42;11.50;;;9.00;99.90;;;;;;5119096;28;20070;-61
2023/04/02 00:34:57;;;;;;;14.70;10.45;;;9.10;99.90;;;;;;5118304;28;20028;-60
2023/04/02 00:37:27;;;;;;;15.75;11.50;;;9.10;99.90;;;;;;5118856;28;20028;-60
2023/04/02 00:40:01;;;;;;;11.95;10.25;;;9.10;99.90;;;;;;5118215;28;20109;-60
2023/04/02 00:42:30;;;;;;;12.80;10.77;;;9.10;99.90;;;;;;5117976;28;20058;-60
2023/04/02 00:44:57;;;;;;;12.95;10.80;;;9.00;99.90;;;;;;5118064;28;20081;-60
2023/04/02 00:47:33;;;;;;;13.95;11.23;;;9.00;99.90;;;;;;5119107;28;20100;-59
2023/04/02 00:50:06;;;;;;;14.00;11.18;;;8.90;99.90;;;;;;5118882;28;20031;-60
2023/04/02 00:52:34;;;;;;;13.00;10.73;;;9.00;99.90;;;;;;5101739;28;20036;-60
2023/04/02 00:55:25;;;;;;;13.63;10.88;;;8.90;99.90;;;;;;5119028;28;20387;-61
2023/04/02 00:57:51;;;;;;;13.40;11.32;;;8.90;99.90;;;;;;5117989;28;20055;-60
2023/04/02 01:00:34;;;;;;;13.38;10.90;;;8.80;99.90;;;;;;5100903;28;20320;-61
2023/04/02 01:03:16;;;;;;;14.85;11.35;;;8.80;99.90;;;;;;5117826;28;20028;-60
2023/04/02 01:05:56;;;;;;;14.77;11.65;;;8.90;99.90;;;;;;5117622;28;20304;-60
2023/04/02 01:08:52;;;;;;;15.43;12.10;;;8.90;99.90;;;;;;5118833;28;20042;-61
2023/04/02 01:11:40;;;;;;;13.93;11.23;;;8.90;99.90;;;;;;5117562;28;20051;-60
2023/04/02 01:14:27;;;;;;;16.00;11.65;;;8.90;99.90;;;;;;5118272;28;20031;-61
2023/04/02 01:17:03;;;;;;;15.00;11.82;;;8.80;99.90;;;;;;5118323;28;20028;-61
2023/04/02 01:19:46;;;;;;;14.48;11.13;;;8.80;99.90;;;;;;5118321;28;20039;-61
2023/04/02 01:22:18;;;;;;;15.45;12.18;;;8.80;99.90;;;;;;5117899;28;20024;-61
2023/04/02 01:24:45;;;;;;;17.23;12.52;;;8.70;99.90;;;;;;5117380;28;20065;-61
2023/04/02 01:27:21;;;;;;;16.25;13.25;;;8.80;99.90;;;;;;5117239;28;20028;-61
2023/04/02 01:29:54;;;;;;;17.50;12.60;;;8.70;99.90;;;;;;5118046;28;20023;-61
2023/04/02 01:32:21;;;;;;;15.52;12.35;;;8.70;99.90;;;;;;5117201;28;20023;-61
2023/04/02 01:34:49;;;;;;;18.85;13.75;;;8.80;99.90;;;;;;5117213;28;20055;-61
2023/04/02 01:37:38;;;;;;;16.60;13.52;;;8.80;99.90;;;;;;5100213;28;20019;-62
2023/04/02 01:40:35;;;;;;;18.40;13.13;;;8.80;99.90;;;;;;5118465;28;20404;-61
2023/04/02 01:43:23;;;;;;;17.77;14.27;;;8.80;99.90;;;;;;5117851;28;20127;-61
2023/04/02 01:45:49;;;;;;;17.63;14.02;;;8.70;99.90;;;;;;5118128;28;20019;-61
2023/04/02 01:48:23;;;;;;;16.85;13.35;;;8.60;99.90;;;;;;5117044;28;20031;-62
2023/04/02 01:50:53;;;;;;;17.88;13.90;;;8.60;99.90;;;;;;5100631;28;20023;-64
2023/04/02 01:53:21;;;;;;;21.15;14.65;;;8.60;99.90;;;;;;5117115;28;20039;-62
2023/04/02 01:55:51;;;;;;;20.23;14.80;;;8.70;99.90;;;;;;5116971;28;20032;-62
2023/04/02 01:58:24;;;;;;;20.60;14.73;;;8.80;99.90;;;;;;5117040;28;20347;-62
2023/04/02 02:01:03;;;;;;;20.08;14.30;;;8.70;99.90;;;;;;5117643;28;20023;-61
2023/04/02 02:03:31;;;;;;;17.63;14.27;;;8.70;99.90;;;;;;5116985;28;20032;-62
2023/04/02 02:05:58;;;;;;;17.00;13.90;;;8.80;99.90;;;;;;5117425;28;20304;-61
2023/04/02 02:08:57;;;;;;;15.95;12.55;;;8.70;99.90;;;;;;5117765;28;20080;-63
2023/04/02 02:11:27;;;;;;;17.25;13.10;;;8.70;99.90;;;;;;5116716;28;20028;-62
2023/04/02 02:13:59;;;;;;;14.38;12.13;;;8.70;99.90;;;;;;5116775;28;20036;-63
2023/04/02 02:16:27;;;;;;;17.73;12.63;;;8.60;99.90;;;;;;5116687;28;20032;-62
2023/04/02 02:19:03;;;;;;;18.00;13.38;;;8.70;99.90;;;;;;5117389;28;20027;-62
2023/04/02 02:21:41;;;;;;;17.48;13.88;;;8.80;99.90;;;;;;5116510;28;20019;-63
2023/04/02 02:24:22;;;;;;;20.77;15.88;;;8.90;99.90;;;;;;5116631;28;20070;-62
2023/04/02 02:27:20;;;;;;;20.75;15.35;;;8.90;99.90;;;;;;5117425;28;20051;-62
2023/04/02 02:29:52;;;;;;;20.30;15.48;;;8.90;99.90;;;;;;5099766;28;20035;-62
2023/04/02 02:32:24;;;;;;;20.48;15.75;;;8.80;99.90;;;;;;5116748;28;20019;-62
2023/04/02 02:35:21;;;;;;;21.02;16.17;;;8.80;99.90;;;;;;5120729;28;20047;-62
2023/04/02 02:38:07;;;;;;;20.15;16.02;;;8.80;99.90;;;;;;5109942;28;20031;-62
2023/04/02 02:40:44;;;;;;;21.75;15.77;;;8.80;99.90;;;;;;5120742;28;20377;-62
2023/04/02 02:43:13;;;;;;;20.13;16.48;;;8.70;99.90;;;;;;5120518;28;20054;-62
2023/04/02 02:45:41;;;;;;;24.33;16.70;;;8.70;99.90;;;;;;5103363;28;20024;-63
2023/04/02 02:48:15;;;;;;;23.27;16.80;;;8.70;99.90;;;;;;5120309;28;20039;-63
2023/04/02 02:50:42;;;;;;;23.63;16.35;;;8.70;99.90;;;;;;5120402;28;20024;-62
2023/04/02 02:53:23;;;;;;;25.52;16.85;;;8.70;99.90;;;;;;5120364;28;20031;-62
2023/04/02 02:55:57;;;;;;;24.27;16.58;;;8.60;99.90;;;;;;5120357;28;20039;-63
2023/04/02 02:58:31;;;;;;;17.38;13.68;;;8.50;99.90;;;;;;5121313;28;20038;-62
2023/04/02 03:01:18;;;;;;;16.27;13.85;;;8.60;99.90;;;;;;5120610;28;20115;-62
2023/04/02 03:03:46;;;;;;;15.43;13.00;;;8.50;99.90;;;;;;5103297;28;20032;-62
2023/04/02 03:06:16;;;;;;;16.10;13.13;;;8.60;99.90;;;;;;5103193;28;20024;-62
2023/04/02 03:08:54;;;;;;;17.83;13.18;;;8.60;99.90;;;;;;5103531;28;20023;-63
2023/04/02 03:11:38;;;;;;;15.10;13.05;;;8.60;99.90;;;;;;5120321;28;20024;-63
2023/04/02 03:14:36;;;;;;;16.25;12.80;;;8.60;99.90;;;;;;5119978;28;20042;-64
2023/04/02 03:17:19;;;;;;;16.77;12.93;;;8.60;99.90;;;;;;5119972;28;20039;-63
2023/04/02 03:19:55;;;;;;;15.95;13.27;;;8.60;99.90;;;;;;5102996;28;20308;-64
2023/04/02 03:22:31;;;;;;;20.90;14.65;;;8.50;99.90;;;;;;5119981;28;20031;-63
2023/04/02 03:25:10;;;;;;;22.08;16.02;;;8.50;99.90;;;;;;5103425;28;20036;-63
2023/04/02 03:27:41;;;;;;;22.02;16.05;;;8.60;99.90;;;;;;5119728;28;20100;-63
2023/04/02 03:30:26;;;;;;;21.30;16.70;;;8.50;99.90;;;;;;5119682;28;20027;-64
2023/04/02 03:32:59;;;;;;;22.27;16.02;;;8.60;99.90;;;;;;5119548;28;20091;-63
2023/04/02 03:35:35;;;;;;;21.17;15.32;;;8.60;99.90;;;;;;5120342;28;20032;-63
2023/04/02 03:38:09;;;;;;;23.65;16.45;;;8.50;99.90;;;;;;5102615;28;20027;-63
2023/04/02 03:40:41;;;;;;;19.88;15.52;;;8.40;99.90;;;;;;5120080;28;20042;-63
2023/04/02 03:43:20;;;;;;;21.40;15.60;;;8.50;99.90;;;;;;5120346;28;20103;-63
2023/04/02 03:45:54;;;;;;;21.55;16.30;;;8.50;99.90;;;;;;5119272;28;20023;-63
2023/04/02 03:48:30;;;;;;;;;;;8.40;99.90;;;;;;5119795;28;20019;-63
2023/04/02 03:51:05;;;;;;;20.17;15.05;;;8.30;99.90;;;;;;5102336;28;20288;-63
2023/04/02 03:53:32;;;;;;;21.13;14.77;;;8.30;99.90;;;;;;5102818;28;20080;-62
2023/04/02 03:56:01;;;;;;;20.83;15.68;;;8.30;99.90;;;;;;5119113;28;20027;-62
2023/04/02 03:58:29;;;;;;;21.25;15.43;;;8.30;99.90;;;;;;5119036;28;20471;-64
2023/04/02 04:01:26;;;;;;;21.33;15.57;;;8.30;99.90;;;;;;5119780;28;20099;-63
2023/04/02 04:04:03;;;;;;;20.50;14.70;;;8.30;99.90;;;;;;5118931;28;20034;-62
2023/04/02 04:06:35;;;;;;;20.02;15.10;;;8.30;99.90;;;;;;5119678;28;20124;-63
2023/04/02 04:09:19;;;;;;;21.60;16.23;;;8.20;99.90;;;;;;5119217;28;20024;-63
2023/04/02 04:11:50;;;;;;;22.15;15.88;;;8.20;99.90;;;;;;5119637;28;20020;-63
2023/04/02 04:14:24;;;;;;;22.42;16.27;;;8.20;99.90;;;;;;5118936;28;20096;-63
2023/04/02 04:16:55;;;;;;;24.10;17.33;;;8.30;99.90;;;;;;5118748;28;20032;-63
2023/04/02 04:19:53;;;;;;;22.10;16.73;;;8.40;99.90;;;;;;5119412;28;20119;-62
2023/04/02 04:22:29;;;;;;;23.95;16.52;;;8.40;99.90;;;;;;5118413;28;20408;-62
2023/04/02 04:25:16;;;;;;;23.23;16.77;;;8.20;99.90;;;;;;5118508;28;20031;-63
2023/04/02 04:28:06;;;;;;;23.70;17.20;;;8.30;99.90;;;;;;5101646;28;20031;-63
2023/04/02 04:31:16;;;;;;;25.63;17.77;;;8.20;99.90;;;;;;5118424;28;20072;-64
2023/04/02 04:33:53;;;;;;;22.55;17.55;;;8.30;99.90;;;;;;5118338;28;20439;-63
2023/04/02 04:36:28;;;;;;;24.60;17.25;;;8.30;99.90;;;;;;5119493;28;20031;-62
2023/04/02 04:39:07;;;;;;;24.88;17.63;;;8.40;99.90;;;;;;5118374;28;20043;-63
2023/04/02 04:41:37;;;;;;;24.35;18.02;;;8.40;99.90;;;;;;5118775;27;20051;-64
2023/04/02 04:44:40;;;;;;;25.08;17.95;;;8.40;99.90;;;;;;5118168;28;20039;-62
2023/04/02 04:47:14;;;;;;;24.38;17.85;;;8.30;99.90;;;;;;5118306;28;20032;-63
2023/04/02 04:49:55;;;;;;;23.67;16.77;;;8.40;99.90;;;;;;5118389;28;20019;-63
2023/04/02 04:52:38;;;;;;;21.40;16.15;;;8.40;99.90;;;;;;5118033;28;20073;-63
2023/04/02 04:55:24;;;;;;;21.20;16.63;;;8.30;99.90;;;;;;5118248;28;20400;-63
2023/04/02 04:57:57;;;;;;;23.75;16.58;;;8.30;99.90;;;;;;5117805;28;20032;-63
2023/04/02 05:00:49;;;;;;;24.10;17.48;;;8.30;99.90;;;;;;5118173;28;20066;-62
2023/04/02 05:03:40;;;;;;;23.33;17.20;;;8.40;99.90;;;;;;5101525;28;20438;-64
2023/04/02 05:06:16;;;;;;;25.38;17.30;;;8.40;99.90;;;;;;5117628;28;20043;-63
2023/04/02 05:08:48;;;;;;;26.42;17.98;;;8.30;99.90;;;;;;5118796;28;20059;-62
2023/04/02 05:11:29;;;;;;;26.25;18.38;;;8.30;99.90;;;;;;5117624;28;20028;-63
2023/04/02 05:14:04;;;;;;;25.63;17.95;;;8.40;99.90;;;;;;5117516;28;20047;-62
2023/04/02 05:17:00;;;;;;;28.13;16.85;;;8.40;99.90;;;;;;5117491;28;20111;-63
2023/04/02 05:20:01;;;;;;;22.67;16.08;;;8.40;99.90;;;;;;5118321;28;20034;-63
2023/04/02 05:22:42;;;;;;;23.27;17.20;;;8.20;99.90;;;;;;5100551;28;20435;-62
2023/04/02 05:25:22;;;;;;;22.58;15.82;;;8.30;99.90;;;;;;5118394;28;20043;-62
2023/04/02 05:28:46;;;;;;;22.35;15.55;;;8.30;99.90;;;;;;5117195;28;20023;-64
2023/04/02 05:31:18;;;;;;;;;;;8.20;99.90;;;;;;5056404;28;20029;-63
2023/04/02 05:33:48;;;;;;;24.65;16.35;;;8.10;99.90;;;;;;5039174;28;20000;-62
2023/04/02 05:36:33;;;;;;;22.83;15.88;;;8.20;99.90;;;;;;5079862;28;20118;-63
2023/04/02 05:39:00;;;;;;;25.40;16.38;;;8.20;99.90;;;;;;5117750;28;20111;-63
2023/04/02 05:42:02;;;;;;;23.30;16.35;;;8.10;99.90;;;;;;5117245;28;20104;-63
2023/04/02 05:44:54;;;;;;;23.17;17.67;;;8.20;99.90;;;;;;5117034;28;20023;-63
2023/04/02 05:47:24;;;;;;;22.88;16.20;;;8.20;99.90;;;;;;5116934;28;20028;-63
2023/04/02 05:50:04;;;;;;;22.30;16.50;;;8.10;99.90;;;;;;5116972;28;20053;-63
2023/04/02 05:52:44;;;;;;;22.27;16.35;;;8.00;99.90;;;;;;5116993;28;20035;-62
2023/04/02 05:55:16;;;;;;;21.00;16.50;;;8.00;99.90;;;;;;5099865;28;20073;-63
2023/04/02 05:57:55;;;;;;;21.63;16.50;;;8.00;99.90;;;;;;5116747;28;20023;-63
2023/04/02 06:00:39;;;;;;;25.30;16.15;;;7.90;99.90;;;;;;5116536;28;20416;-63
2023/04/02 06:03:37;;;;;;;20.38;15.70;;;7.90;99.90;;;;;;5117828;28;20092;-63
2023/04/02 06:06:33;;;;;;;21.30;15.85;;;7.90;99.90;;;;;;5091319;28;20085;-62
2023/04/02 06:09:07;;;;;;;18.98;15.73;;;7.90;99.90;;;;;;5117276;28;20031;-62
2023/04/02 06:11:45;;;;;;;19.52;15.85;;;7.90;99.90;;;;;;5117435;28;20107;-62
2023/04/02 06:14:16;;;;;;;20.63;16.52;;;7.90;99.90;;;;;;5116691;28;20032;-64
2023/04/02 06:16:45;;;;;;;23.65;15.80;;;7.90;99.90;;;;;;5116565;28;20036;-61
2023/04/02 06:19:34;;;;;;;19.17;14.98;;;7.90;99.90;;;;;;5117437;28;20080;-62
2023/04/02 06:22:29;;;;;;;23.65;15.93;;;7.80;99.90;;;;;;5117423;28;20412;-62
2023/04/02 06:25:02;;;;;;;20.92;15.23;;;7.80;99.90;;;;;;5103966;28;20116;-63
2023/04/02 06:27:31;;;;;;;23.35;15.88;;;7.80;99.90;;;;;;5117208;28;20414;-63
2023/04/02 06:30:01;;;;;;;18.52;15.48;;;7.80;99.90;;;;;;5117204;28;20032;-62
2023/04/02 06:32:30;;;;;;;18.95;15.20;;;7.60;99.90;;;;;;5116525;28;20253;-61
2023/04/02 06:34:56;;;;;;;20.50;15.40;;;7.60;99.90;;;;;;5116442;28;20304;-63
2023/04/02 06:37:27;;;;;;;19.05;15.10;;;7.70;99.90;;;;;;5116395;28;20304;-62
2023/04/02 06:40:52;;;;;;;21.95;16.05;;;7.80;99.90;;;;;;5116464;28;20031;-63
2023/04/02 06:43:46;;;;;;;20.52;15.10;;;7.90;99.90;;;;;;5038427;28;20048;-63
2023/04/02 06:46:27;;;;;;;22.08;15.45;;;8.00;99.90;;;;;;5116731;28;20341;-62
2023/04/02 06:49:35;;;;;;;19.80;15.27;;;8.00;99.90;;;;;;5116324;28;20027;-61
2023/04/02 06:52:09;;;;;;;25.30;15.07;;;8.10;99.90;;;;;;5117100;28;20023;-61
2023/04/02 06:54:35;;;;;;;;;;;8.10;99.90;;;;;;5118058;28;20102;-61
2023/04/02 06:57:06;;;;;;;23.30;14.82;;;8.10;99.90;;;;;;5116200;28;19918;-61
2023/04/02 06:59:36;;;;;;;21.60;14.90;;;8.10;99.90;;;;;;5117122;28;20055;-62
2023/04/02 07:02:23;;;;;;;24.73;15.57;;;8.10;99.90;;;;;;5116116;28;20375;-61
2023/04/02 07:04:49;;;;;;;26.00;15.45;;;8.10;99.90;;;;;;5116118;28;20043;-62
2023/04/02 07:07:17;;;;;;;25.48;15.95;;;8.00;99.90;;;;;;5116020;28;20039;-61
2023/04/02 07:09:45;;;;;;;23.17;14.13;;;7.90;99.90;;;;;;5116139;28;20032;-61
2023/04/02 07:12:14;;;;;;;20.00;14.35;;;7.90;99.90;;;;;;5116876;28;20301;-60
2023/04/02 07:14:41;;;;;;;19.30;14.23;;;8.00;99.90;;;;;;5099294;28;20047;-61
2023/04/02 07:17:16;;;;;;;20.15;14.18;;;7.90;99.90;;;;;;5116025;28;20036;-60
2023/04/02 07:19:47;;;;;;;20.90;13.73;;;7.80;99.90;;;;;;5118385;28;20310;-61
2023/04/02 07:22:20;;;;;;;21.05;14.65;;;7.80;99.90;;;;;;5120652;28;20107;-63
2023/04/02 07:24:50;;;;;;;19.05;13.27;;;7.90;99.90;;;;;;5119558;28;20024;-61
2023/04/02 07:27:16;;;;;;;17.85;13.48;;;7.80;99.90;;;;;;5120434;28;20290;-62
2023/04/02 07:29:42;;;;;;;16.20;13.52;;;7.70;99.90;;;;;;5120396;28;20293;-63
2023/04/02 07:32:10;;;;;;;16.50;12.50;;;7.80;99.90;;;;;;5120565;28;20043;-62
2023/04/02 07:34:36;;;;;;;15.65;12.23;;;7.70;99.90;;;;;;5120391;28;20043;-63
2023/04/02 07:37:03;;;;;;;19.75;12.30;;;7.70;99.90;;;;;;5102755;28;20038;-61
2023/04/02 07:39:29;;;;;;;15.75;12.40;;;7.80;99.90;;;;;;5120270;28;20180;-62
2023/04/02 07:42:00;;;;;;;16.80;12.13;;;8.00;99.90;;;;;;5120071;28;20059;-61
2023/04/02 07:44:27;;;;;;;18.60;12.80;;;8.10;99.90;;;;;;5120583;28;20101;-61
2023/04/02 07:46:53;;;;;;;18.40;12.27;;;8.00;99.90;;;;;;5120048;28;20039;-62
2023/04/02 07:49:20;;;;;;;15.18;12.27;;;8.00;99.90;;;;;;5102680;28;20071;-61
2023/04/02 07:51:46;;;;;;;17.80;12.43;;;7.80;99.90;;;;;;5120234;28;20042;-62
2023/04/02 07:54:12;;;;;;;16.35;13.25;;;7.80;99.90;;;;;;5120008;28;20059;-62
2023/04/02 07:56:38;;;;;;;18.00;13.13;;;7.90;99.90;;;;;;5119945;28;20059;-60
2023/04/02 07:59:05;;;;;;;16.00;12.07;;;7.90;99.90;;;;;;5119855;28;20024;-62
2023/04/02 08:01:34;;;;;;;15.75;11.93;;;7.90;99.90;;;;;;5119779;28;20031;-62
2023/04/02 08:04:02;;;;;;;14.68;11.48;;;7.90;99.90;;;;;;5119659;28;20035;-62
2023/04/02 08:06:28;;;;;;;15.57;10.98;;;8.00;99.90;;;;;;5118873;28;20019;-61
2023/04/02 08:08:55;;;;;;;12.23;10.52;;;7.70;99.90;;;;;;5119721;28;20354;-61
2023/04/02 08:11:21;;;;;;;14.88;10.90;;;7.70;99.90;;;;;;5119510;28;20088;-61
2023/04/02 08:13:47;;;;;;;14.13;11.32;;;7.80;99.90;;;;;;5118782;28;20296;-61
2023/04/02 08:16:13;;;;;;;14.13;11.07;;;7.90;99.90;;;;;;5119549;28;20128;-61
2023/04/02 08:18:39;;;;;;;12.18;9.70;;;8.10;99.90;;;;;;5119647;28;20152;-61
2023/04/02 08:21:07;;;;;;;12.98;10.25;;;8.10;99.90;;;;;;5118655;28;20039;-61
2023/04/02 08:23:34;;;;;;;14.07;10.07;;;8.10;99.90;;;;;;5119323;28;20035;-60
2023/04/02 08:26:00;;;;;;;11.52;9.48;;;8.30;99.90;;;;;;5118382;28;20043;-62
2023/04/02 08:28:26;;;;;;;12.10;9.20;;;8.30;97.70;;;;;;5118508;28;20030;-61
2023/04/02 08:30:52;;;;;;;12.85;9.38;;;8.30;98.00;;;;;;5118174;28;20020;-60
2023/04/02 08:33:18;;;;;;;11.07;9.02;;;8.40;94.10;;;;;;5118440;28;20038;-61
2023/04/02 08:35:46;;;;;;;10.38;8.48;;;8.30;95.80;;;;;;5119084;28;20300;-62
2023/04/02 08:38:14;;;;;;;8.98;8.05;;;8.40;95.50;;;;;;5119100;28;20102;-61
2023/04/02 08:40:45;;;;;;;8.75;7.82;;;8.30;95.80;;;;;;5118813;28;20031;-62
2023/04/02 08:43:17;;;;;;;9.20;7.80;;;8.30;94.60;;;;;;5118627;28;20107;-62
2023/04/02 08:45:52;;;;;;;8.30;7.47;;;8.50;91.30;;;;;;5119453;28;20297;-60
2023/04/02 08:48:19;;;;;;;8.60;7.75;;;8.40;90.30;;;;;;5119043;28;20051;-61
2023/04/02 08:50:45;;;;;;;8.02;6.90;;;8.50;91.60;;;;;;5118022;28;20028;-61
2023/04/02 08:53:30;;;;;;;8.52;7.63;;;8.40;93.60;;;;;;5118781;28;20034;-61
2023/04/02 08:56:08;;;;;;;8.63;7.78;;;8.50;92.80;;;;;;5117963;28;20024;-61
2023/04/02 08:59:11;;;;;;;8.38;7.53;;;8.40;93.00;;;;;;5118732;28;20115;-62
2023/04/02 09:02:18;;;;;;;8.57;7.68;;;8.40;90.80;;;;;;5105606;28;20328;-61
2023/04/02 09:04:44;;;;;;;9.68;8.00;;;8.10;91.60;;;;;;5118039;28;20028;-62
2023/04/02 09:07:15;;;;;;;9.00;7.38;;;8.00;95.60;;;;;;5117713;28;20030;-61
2023/04/02 09:09:42;;;;;;;10.27;7.45;;;8.20;94.40;;;;;;5118344;28;20020;-61
2023/04/02 09:12:20;;;;;;;9.85;7.20;;;7.90;94.80;;;;;;5118314;28;20039;-61
2023/04/02 09:15:05;;;;;;;8.60;6.15;;;8.10;95.70;;;;;;5118469;28;20300;-61
2023/04/02 09:17:31;;;;;;;7.95;5.78;;;8.30;92.60;;;;;;5118372;28;20405;-61
2023/04/02 09:20:12;;;;;;;5.63;4.78;;;8.30;91.60;;;;;;5118276;28;20028;-61
2023/04/02 09:22:38;;;;;;;9.32;4.95;;;8.20;86.90;;;;;;5118135;28;20032;-62
2023/04/02 09:25:11;;;;;;;7.35;4.63;;;8.40;88.80;;;;;;5118099;28;20036;-61
2023/04/02 09:27:37;;;;;;;6.65;4.85;;;8.70;81.60;;;;;;5118298;28;20039;-61
2023/04/02 09:30:41;;;;;;;6.68;4.70;;;8.40;85.80;;;;;;5101031;28;20297;-61
2023/04/02 09:33:07;;;;;;;4.93;4.45;;;8.50;90.00;;;;;;5100182;28;20089;-62
2023/04/02 09:35:53;;;;;;;5.18;4.30;;;8.40;84.60;;;;;;5118005;28;20081;-61
2023/04/02 09:38:22;;;;;;;5.07;4.13;;;8.30;90.70;;;;;;5117937;28;20039;-62
2023/04/02 09:40:52;;;;;;;5.47;3.70;;;8.70;83.30;;;;;;5100214;28;20027;-63
2023/04/02 09:43:27;;;;;;;4.90;3.33;;;9.20;71.90;;;;;;5117745;28;20379;-62
2023/04/02 09:46:14;;;;;;;5.25;3.75;;;9.40;54.00;;;;;;5099953;28;20027;-62
2023/04/02 09:48:43;;;;;;;5.50;3.47;;;9.40;58.10;;;;;;5117871;28;20019;-63
2023/04/02 09:51:21;;;;;;;5.18;3.53;;;9.60;56.70;;;;;;5117730;28;20034;-61
2023/04/02 09:54:00;;;;;;;5.80;3.13;;;9.20;51.70;;;;;;5117634;28;20123;-61
2023/04/02 09:56:27;;;;;;;4.47;3.33;;;8.90;69.30;;;;;;5117704;28;20034;-61
2023/04/02 09:59:04;;;;;;;6.50;4.50;;;9.20;71.50;;;;;;5117561;28;20032;-61
2023/04/02 10:01:36;;;;;;;8.73;5.28;;;9.50;63.70;;;;;;5117563;28;20026;-61
2023/04/02 10:04:04;;;;;;;6.93;5.13;;;9.80;59.20;;;;;;5117644;28;20084;-61
2023/04/02 10:06:32;;;;;;;7.93;5.18;;;10.00;44.00;;;;;;5116730;28;20027;-60
2023/04/02 10:09:19;;;;;;;7.72;5.40;;;10.00;38.50;;;;;;5117356;28;20032;-61
2023/04/02 10:11:45;;;;;;;7.70;5.00;;;10.00;44.20;;;;;;5117351;28;20028;-61
2023/04/02 10:14:20;;;;;;;4.57;4.03;;;9.80;47.70;;;;;;5117345;28;20015;-61
2023/04/02 10:16:52;;;;;;;9.02;3.10;;;10.00;40.50;;;;;;5117385;28;20081;-64
2023/04/02 10:19:25;;;;;;;3.67;2.65;;;10.10;29.50;;;;;;5116583;28;20100;-63
2023/04/02 10:21:53;;;;;;;3.65;2.50;;;9.90;22.60;;;;;;5116666;28;20115;-63
2023/04/02 10:24:19;;;;;;;3.65;2.47;;;9.60;28.80;;;;;;5117241;28;20028;-63
2023/04/02 10:27:25;;;;;;;3.53;2.50;;;9.50;40.00;;;;;;5117240;28;20300;-62
2023/04/02 10:30:16;;;;;;;6.85;3.10;;;9.20;46.10;;;;;;5117151;27;20396;-62
2023/04/02 10:32:48;;;;;;;4.25;3.03;;;9.20;54.10;;;;;;5117220;28;20066;-63
2023/04/02 10:36:08;;;;;;;7.20;4.00;;;8.90;46.80;;;;;;5117851;28;20293;-63
2023/04/02 10:38:54;;;;;;;6.32;4.47;;;9.20;55.20;;;;;;5055207;28;20075;-61
2023/04/02 10:41:44;;;;;;;6.13;4.40;;;9.20;50.90;;;;;;5116281;28;20139;-61
2023/04/02 10:44:19;;;;;;;7.57;4.55;;;9.40;54.60;;;;;;5116896;28;20027;-61
2023/04/02 10:47:15;;;;;;;6.40;4.50;;;9.60;53.30;;;;;;5116999;28;20024;-60
2023/04/02 10:49:56;;;;;;;5.70;4.20;;;9.70;48.70;;;;;;5111834;28;20046;-61
2023/04/02 10:53:00;;;;;;;5.50;3.92;;;9.50;41.70;;;;;;5116577;28;20343;-67
2023/04/02 10:55:31;;;;;;;6.82;3.70;;;9.60;44.30;;;;;;5058878;28;20279;-66
2023/04/02 10:58:03;;;;;;;5.45;3.67;;;9.50;39.20;;;;;;5058937;28;20136;-66
2023/04/02 11:00:34;;;;;;;6.07;3.65;;;9.60;46.40;;;;;;5092678;28;20333;-65
2023/04/02 11:03:16;;;;;;;7.43;3.25;;;9.80;40.20;;;;;;5120221;28;20028;-66
2023/04/02 11:05:54;;;;;;;5.78;3.47;;;9.80;38.00;;;;;;5103985;28;20266;-66
2023/04/02 11:08:29;;;;;;;5.40;2.90;;;9.40;51.30;;;;;;5120866;27;20028;-66
2023/04/02 11:11:04;;;;;;;4.30;2.58;;;9.60;40.80;;;;;;5120861;28;20058;-66
2023/04/02 11:13:42;;;;;;;2.67;2.10;;;9.50;41.90;;;;;;5120082;28;20034;-66
2023/04/02 11:16:13;;;;;;;4.32;2.80;;;9.60;45.40;;;;;;5120683;28;20031;-66
2023/04/02 11:18:40;;;;;;;4.35;2.00;;;9.80;29.20;;;;;;5120637;28;20028;-66
2023/04/02 11:21:26;;;;;;;2.53;2.20;;;9.80;24.40;;;;;;5120537;28;20080;-66
2023/04/02 11:24:00;;;;;;;4.15;2.72;;;9.70;25.70;;;;;;5120481;28;20036;-66
2023/04/02 11:26:36;;;;;;;4.70;2.53;;;9.40;36.20;;;;;;5120288;28;20084;-66
2023/04/02 11:29:17;;;;;;;3.97;2.58;;;9.20;40.30;;;;;;5120561;28;20297;-65
2023/04/02 11:31:44;;;;;;;4.32;2.50;;;9.10;41.20;;;;;;5120552;28;20111;-65
2023/04/02 11:34:34;;;;;;;3.38;2.60;;;9.30;43.70;;;;;;5120288;28;20032;-65
2023/04/02 11:37:02;;;;;;;4.35;2.63;;;9.00;48.30;;;;;;5119898;28;20024;-66
2023/04/02 11:39:58;;;;;;;5.72;2.70;;;8.80;50.10;;;;;;5120068;28;20181;-66
2023/04/02 11:42:33;;;;;;;4.00;2.47;;;9.10;49.60;;;;;;5119867;28;20094;-66
2023/04/02 11:45:27;;;;;;;5.55;2.60;;;8.90;50.20;;;;;;5120369;28;20031;-65
2023/04/02 11:47:59;;;;;;;3.53;2.50;;;9.40;50.10;;;;;;5091217;28;20059;-65
2023/04/02 11:50:30;;;;;;;3.10;2.80;;;9.50;36.50;;;;;;5119206;28;20028;-65
2023/04/02 11:53:10;;;;;;;5.75;2.83;;;9.60;39.10;;;;;;5119166;28;20102;-65
2023/04/02 11:55:41;;;;;;;4.53;3.00;;;9.70;24.80;;;;;;5119069;28;20058;-65
2023/04/02 11:58:34;;;;;;;5.68;2.58;;;9.80;25.40;;;;;;5119841;28;20385;-66
2023/04/02 12:01:17;;;;;;;5.03;2.60;;;9.50;31.00;;;;;;5119576;28;20034;-64
2023/04/02 12:04:04;;;;;;;5.63;3.20;;;9.50;32.80;;;;;;5119721;28;20111;-65
2023/04/02 12:06:45;;;;;;;4.72;2.80;;;9.10;40.60;;;;;;5119461;28;20020;-66
2023/04/02 12:09:21;;;;;;;3.85;2.83;;;9.00;40.10;;;;;;5119691;28;20030;-64
2023/04/02 12:11:48;;;;;;;5.35;3.40;;;8.90;53.10;;;;;;5101795;28;20031;-66
2023/04/02 12:14:46;;;;;;;4.40;3.20;;;9.20;57.60;;;;;;5118678;28;20134;-66
2023/04/02 12:17:29;;;;;;;4.43;3.00;;;9.50;46.10;;;;;;5119539;28;20024;-65
2023/04/02 12:20:22;;;;;;;4.53;3.03;;;9.70;33.90;;;;;;5119302;28;20084;-65
2023/04/02 12:22:51;;;;;;;3.75;3.00;;;9.10;42.00;;;;;;5111761;28;20058;-65
2023/04/02 12:25:31;;;;;;;6.72;3.20;;;9.20;43.30;;;;;;5119150;28;20385;-65
2023/04/02 12:28:09;;;;;;;4.35;2.90;;;9.10;44.00;;;;;;5119224;28;20088;-65
2023/04/02 12:30:37;;;;;;;4.10;3.00;;;8.90;47.30;;;;;;5119233;28;20059;-66
2023/04/02 12:33:16;;;;;;;4.43;2.88;;;8.80;47.70;;;;;;5119094;28;20035;-66
2023/04/02 12:35:44;;;;;;;5.10;3.13;;;8.90;57.00;;;;;;5119058;28;20114;-65
2023/04/02 12:38:28;;;;;;;5.00;3.40;;;8.60;59.60;;;;;;5118305;28;20027;-66
2023/04/02 12:40:56;;;;;;;6.18;3.88;;;8.70;61.50;;;;;;5118634;28;20292;-61
2023/04/02 12:43:24;;;;;;;6.88;3.45;;;8.80;57.40;;;;;;5118295;28;20074;-61
2023/04/02 12:45:52;;;;;;;6.15;3.55;;;8.70;55.00;;;;;;5118791;28;20027;-62
2023/04/02 12:48:18;;;;;;;3.85;3.38;;;8.60;60.20;;;;;;5118835;28;20055;-60
2023/04/02 12:50:45;;;;;;;5.07;3.45;;;8.70;55.70;;;;;;5118790;28;20028;-62
2023/04/02 12:53:36;;;;;;;5.00;3.40;;;8.80;54.00;;;;;;5118569;28;20031;-60
2023/04/02 12:56:03;;;;;;;5.90;3.15;;;8.50;61.70;;;;;;5118644;28;20032;-63
2023/04/02 12:58:36;;;;;;;5.63;3.10;;;8.50;71.10;;;;;;5118610;28;20032;-63
2023/04/02 13:01:12;;;;;;;4.93;3.40;;;8.60;62.30;;;;;;5118665;28;20063;-63
2023/04/02 13:03:39;;;;;;;4.35;3.00;;;8.40;62.20;;;;;;5118435;28;20115;-62
2023/04/02 13:06:22;;;;;;;3.88;3.03;;;8.40;61.10;;;;;;5117741;28;20304;-63
2023/04/02 13:08:49;;;;;;;7.47;3.08;;;8.70;69.70;;;;;;5118392;28;20076;-63
2023/04/02 13:11:16;;;;;;;4.85;2.90;;;9.10;48.30;;;;;;5118403;28;20099;-62
2023/04/02 13:13:44;;;;;;;4.40;3.38;;;9.10;39.10;;;;;;5118187;28;20023;-62
2023/04/02 13:16:16;;;;;;;3.63;2.88;;;9.20;40.60;;;;;;5117847;28;20045;-62
2023/04/02 13:18:45;;;;;;;6.07;3.33;;;9.00;47.00;;;;;;5117472;28;20111;-61
2023/04/02 13:21:26;;;;;;;6.20;3.17;;;8.90;46.70;;;;;;5118471;28;20416;-62
2023/04/02 13:23:52;;;;;;;5.93;3.10;;;8.70;55.50;;;;;;5118074;28;20027;-63
2023/04/02 13:26:24;;;;;;;5.28;2.95;;;8.30;56.60;;;;;;5117316;28;20322;-62
2023/04/02 13:28:59;;;;;;;;;;;8.40;59.90;;;;;;5118434;28;20028;-62
2023/04/02 13:31:26;;;;;;;4.65;2.83;;;8.50;58.90;;;;;;5118042;28;19907;-62
2023/04/02 13:33:52;;;;;;;4.38;3.08;;;8.80;54.90;;;;;;5118035;28;20088;-63